Overview Statistics Trail Chart Weather Telemetry Raw packets
 

This is the latest recevied weather packets stored in our database for station/object IQ5VK-13. If no packets are shown the sender has not sent any weather packets the latest 10 day(s).

<< 2 3 4 5 6 7 8 >>
Time Temp. Humidity Pressure Rain* Wind** Luminosity Snow
1788442365 27.22° C 58% 1022.6 hPa - - - -
1788441165 27.22° C 57% 1022.8 hPa - - - -
1788439965 27.22° C 56% 1022.6 hPa - - - -
1788437569 26.67° C 58% 1023 hPa - - - -
1788436369 27.78° C 55% 1023 hPa - - - -
1788435169 27.78° C 54% 1022.9 hPa - - - -
1788433968 28.33° C 53% 1023.1 hPa - - - -
1788432768 27.78° C 54% 1023.4 hPa - - - -
1788431588 27.22° C 55% 1023.4 hPa - - - -
1788430367 27.78° C 53% 1023.6 hPa - - - -
1788429167 28.89° C 49% 1023.7 hPa - - - -
1788427969 30° C 46% 1023.9 hPa - - - -
1788426767 31.11° C 44% 1023.7 hPa - - - -
1788425566 32.22° C 43% 1023.8 hPa - - - -
1788424369 31.67° C 43% 1023.5 hPa - - - -
1788423166 30.56° C 45% 1023.4 hPa - - - -
1788421966 30° C 49% 1023.3 hPa - - - -
1788420768 28.89° C 52% 1023.1 hPa - - - -
1788419566 27.78° C 54% 1023 hPa - - - -
1788415964 22.78° C 58% 1023 hPa - - - -
1788414764 19.44° C 66% 1022.9 hPa - - - -
1788413563 17.78° C 72% 1022.7 hPa - - - -
1788412363 17.22° C 78% 1022.7 hPa - - - -
1788411163 17.22° C 88% 1022.5 hPa - - - -
1788409963 16.67° C 91% 1022.4 hPa - - - -

* Rain since midnight (hover to see other rain measurements)
** Current wind speed in m/s (hover to see current wind gust speed)